Waterville, ME (04901)

7:10 AM EST on January 20, 2017 (GMT -0500)
Eustis Parkway | | Change Station

Elev 108 ft 44.56 °N, 69.64 °W | Updated 13 seconds ago

Overcast
Overcast
32.4 °F
Feels Like 32 °F
N
0.0
Wind Variable Wind from North

Today
High -- | Low -- °F
--% Chance of Precip.
Yesterday
High -- | Low -- °F
Precip. -- in
Pressure 30.11 in
Visibility 10.0 miles
Clouds Overcast 2900 ft
Windchill 32 °F
Dew Point 27 °F
Humidity 83%
Rainfall Not available.
Snow Depth Not available.
7:08 AM 4:31 PM
Last Quarter, 45% visible
METAR KWVL 201156Z AUTO 30004KT 10SM OVC029 01/M03 A2999 RMK AO2 SLP194 70002 T00061033 10011 21017 51012 FZRANO
Pressure 30.11 in
Visibility 10.0 miles
Clouds Overcast 2900 ft
Windchill 32 °F
Dew Point 27 °F
Humidity 83%
Rainfall Not available.
Snow Depth Not available.
7:08 AM 4:31 PM
Last Quarter, 45% visible
METAR KWVL 201156Z AUTO 30004KT 10SM OVC029 01/M03 A2999 RMK AO2 SLP194 70002 T00061033 10011 21017 51012 FZRANO

Get Your Daily Forecast Email!

Thanks for signing up!

Be on the lookout for a verification email in your inbox.

You'll start receiving the daily forecast at 8 AM.

×

10-Day Weather Forecast

Almanac

Astronomy

Jan. 20, 2017 Rise Set
Actual Time
Civil Twilight
Nautical Twilight
Astronomical Twilight
Moon
Length of Visible Light
Length of Day
Tomorrow will be .
, % of the Moon is Illuminated

Today's Extremes

State Highs State Lows

Community

WunderPhotos

Upload Photos

1,962,540 photos uploaded!

WunderBlog® & News

Nearby

Air Quality

  Air Quality AQ Index Pollutant
Not available.

Snow Depth

Station Depth Elevation

Earthquake Activity

City Distance Mag. Time & Date
Minimum magnitude displayed is 2.5.

Coastal Water Temperatures

Place Temperature

Stations

Nearby Weather Stations

Station Location Temp. Windchill Dew Point Humidity Wind Precip. Elev Updated Type
                   

Watches & Warnings

Small Craft for Hazardous Seas Advisory
Issued: 3:41 AM EST Jan. 20, 2017 – National Weather Service

... Small Craft Advisory for hazardous seas now in effect until
9 am EST this morning...

* seas... 3 to 5 feet... subsiding to 3 ft.

Precautionary/preparedness actions...

A Small Craft Advisory for hazardous seas means that waves are
expected to be hazardous to small craft. Mariners should avoid
shoaling areas. Long period swell can sharpen into large breaking
waves in shoaling areas. It is not unusual for waves to break
much farther from shoaling areas than is normally experienced.
Remember... breaking waves can easily capsize even larger vessels.